createdAt,value
2018-06-09T00:01:10.115Z,62.71
2018-06-09T00:02:37.582Z,62.74
2018-06-09T00:04:09.113Z,63.00
2018-06-09T00:05:32.523Z,62.77
2018-06-09T00:06:59.800Z,62.88
2018-06-09T00:08:27.258Z,62.54
2018-06-09T00:09:54.538Z,62.33
2018-06-09T00:11:22.010Z,62.84
2018-06-09T00:12:49.310Z,62.90
2018-06-09T00:14:20.658Z,63.15
2018-06-09T00:15:44.182Z,63.12
2018-06-09T00:17:11.496Z,63.21
2018-06-09T00:18:38.914Z,63.42
2018-06-09T00:20:10.416Z,62.86
2018-06-09T00:21:33.760Z,62.84
2018-06-09T00:23:00.994Z,62.65
2018-06-09T00:24:28.442Z,62.26
2018-06-09T00:25:55.992Z,62.17
2018-06-09T00:27:23.530Z,62.28
2018-06-09T00:28:50.956Z,62.70
2018-06-09T00:30:18.297Z,63.01
2018-06-09T00:31:45.664Z,62.94
2018-06-09T00:33:17.212Z,63.31
2018-06-09T00:34:44.713Z,63.13
2018-06-09T00:36:12.165Z,63.15
2018-06-09T00:37:35.574Z,62.90
2018-06-09T00:39:03.052Z,63.19
2018-06-09T00:40:30.293Z,62.96
2018-06-09T00:41:57.452Z,62.87
2018-06-09T00:43:24.643Z,62.57
2018-06-09T00:44:51.997Z,62.80
2018-06-09T00:46:23.370Z,63.41
2018-06-09T00:47:50.781Z,63.46
2018-06-09T00:49:14.243Z,63.79
2018-06-09T00:50:41.828Z,64.04
2018-06-09T00:52:13.246Z,64.02
2018-06-09T00:53:36.650Z,63.87
2018-06-09T00:55:07.948Z,64.11
2018-06-09T00:56:31.375Z,64.21
2018-06-09T00:57:58.799Z,64.36
2018-06-09T00:59:30.341Z,64.94
2018-06-09T01:00:57.863Z,65.36
2018-06-09T01:02:21.137Z,65.46
2018-06-09T01:03:53.445Z,65.54
2018-06-09T01:05:19.953Z,65.45
2018-06-09T01:06:43.331Z,65.29
2018-06-09T01:08:10.603Z,65.43
2018-06-09T01:09:37.816Z,65.28
2018-06-09T01:11:05.087Z,65.44
2018-06-09T01:12:32.585Z,66.18
2018-06-09T01:14:04.121Z,66.34
2018-06-09T01:15:27.221Z,66.39
2018-06-09T01:16:58.596Z,66.90
2018-06-09T01:18:21.958Z,66.76
2018-06-09T01:19:49.397Z,67.08
2018-06-09T01:21:16.769Z,67.22
2018-06-09T01:22:48.383Z,67.14
2018-06-09T01:24:11.461Z,67.01
2018-06-09T01:25:42.897Z,67.08
2018-06-09T01:27:06.206Z,67.46
2018-06-09T01:28:33.827Z,67.59
2018-06-09T01:30:01.290Z,67.42
2018-06-09T01:31:28.868Z,67.36
2018-06-09T01:32:56.324Z,67.53
2018-06-09T01:34:27.677Z,67.63
2018-06-09T01:35:51.275Z,67.83
2018-06-09T01:37:18.471Z,67.64
2018-06-09T01:38:49.970Z,68.40
2018-06-09T01:40:17.552Z,68.23
2018-06-09T01:41:40.857Z,68.50
2018-06-09T01:43:12.325Z,68.54
2018-06-09T01:44:35.664Z,68.27
2018-06-09T01:46:06.917Z,68.02
2018-06-09T01:47:30.087Z,67.94
2018-06-09T01:48:57.426Z,67.49
2018-06-09T01:50:28.724Z,67.46
2018-06-09T01:51:56.316Z,67.54
2018-06-09T01:53:23.617Z,67.42
2018-06-09T01:54:51.184Z,67.64
2018-06-09T01:56:14.517Z,68.01
2018-06-09T01:57:41.887Z,67.60
2018-06-09T01:59:09.302Z,67.71
2018-06-09T02:00:40.516Z,67.43
2018-06-09T02:02:03.940Z,67.08
2018-06-09T02:03:35.537Z,67.42
2018-06-09T02:04:59.009Z,67.36
2018-06-09T02:06:26.331Z,67.45
2018-06-09T02:07:53.719Z,67.51
2018-06-09T02:09:21.223Z,67.63
2018-06-09T02:10:48.708Z,67.25
2018-06-09T02:12:16.316Z,67.48
2018-06-09T02:13:47.730Z,67.87
2018-06-09T02:15:14.984Z,68.13
2018-06-09T02:16:38.041Z,68.23
2018-06-09T02:18:05.269Z,68.29
2018-06-09T02:19:36.940Z,68.19
2018-06-09T02:21:04.329Z,68.30
2018-06-09T02:22:31.708Z,68.44
2018-06-09T02:23:55.024Z,68.48
2018-06-09T02:25:26.513Z,68.09
2018-06-09T02:26:49.902Z,68.39
2018-06-09T02:28:16.957Z,68.31
2018-06-09T02:29:44.362Z,68.48
2018-06-09T02:31:11.805Z,68.95
2018-06-09T02:32:43.344Z,68.95
2018-06-09T02:34:06.794Z,68.79
2018-06-09T02:35:38.017Z,68.86
2018-06-09T02:37:01.217Z,69.04
2018-06-09T02:38:28.581Z,69.08
2018-06-09T02:39:59.857Z,69.19
2018-06-09T02:41:23.314Z,69.34
2018-06-09T02:42:54.770Z,69.52
2018-06-09T02:44:18.218Z,69.93
2018-06-09T02:45:45.755Z,70.07
2018-06-09T02:47:13.154Z,70.17
2018-06-09T02:48:40.651Z,70.36
2018-06-09T02:50:08.065Z,70.27
2018-06-09T02:51:35.354Z,70.09
2018-06-09T02:53:02.572Z,70.21
2018-06-09T02:54:30.166Z,70.40
2018-06-09T02:55:57.218Z,70.56
2018-06-09T02:57:24.707Z,70.48
2018-06-09T02:58:56.003Z,70.65
2018-06-09T03:00:19.190Z,70.98
2018-06-09T03:01:46.680Z,70.94
2018-06-09T03:03:14.243Z,70.81
2018-06-09T03:04:41.625Z,71.39
2018-06-09T03:06:09.186Z,71.34
2018-06-09T03:07:40.531Z,71.45
2018-06-09T03:09:03.973Z,71.40
2018-06-09T03:10:31.388Z,71.45
2018-06-09T03:12:02.814Z,71.48
2018-06-09T03:13:26.083Z,71.54
2018-06-09T03:14:57.702Z,71.78
2018-06-09T03:16:20.930Z,71.87
2018-06-09T03:17:48.366Z,71.99
2018-06-09T03:19:19.885Z,71.98
2018-06-09T03:20:47.424Z,72.09
2018-06-09T03:22:10.964Z,71.53
2018-06-09T03:23:38.239Z,71.94
2018-06-09T03:25:05.619Z,71.78
2018-06-09T03:26:33.119Z,71.79
2018-06-09T03:28:00.473Z,71.95
2018-06-09T03:29:31.918Z,71.86
2018-06-09T03:30:59.419Z,71.81
2018-06-09T03:32:22.771Z,71.78
2018-06-09T03:33:54.262Z,71.80
2018-06-09T03:35:21.663Z,72.55
2018-06-09T03:36:44.898Z,72.92
2018-06-09T03:38:12.238Z,72.83
2018-06-09T03:39:39.701Z,72.79
2018-06-09T03:41:11.084Z,72.88
2018-06-09T03:42:34.439Z,72.78
2018-06-09T03:44:02.004Z,72.68
2018-06-09T03:45:29.381Z,72.80
2018-06-09T03:47:00.696Z,72.88
2018-06-09T03:48:23.928Z,73.03
2018-06-09T03:49:51.428Z,73.31
2018-06-09T03:51:18.786Z,73.06
2018-06-09T03:52:46.197Z,72.64
2018-06-09T03:54:13.533Z,72.34
2018-06-09T03:55:44.929Z,72.12
2018-06-09T03:57:12.591Z,71.44
2018-06-09T03:58:35.943Z,70.93
2018-06-09T04:00:03.476Z,70.69
2018-06-09T04:01:35.015Z,70.54
2018-06-09T04:02:58.306Z,70.79
2018-06-09T04:04:29.711Z,70.89
2018-06-09T04:05:53.214Z,71.04
2018-06-09T04:07:24.810Z,71.40
2018-06-09T04:08:48.245Z,72.01
2018-06-09T04:10:15.645Z,72.18
2018-06-09T04:11:47.176Z,72.58
2018-06-09T04:13:14.728Z,73.00
2018-06-09T04:14:37.892Z,73.24
2018-06-09T04:16:09.307Z,73.59
2018-06-09T04:17:32.620Z,73.77
2018-06-09T04:19:04.245Z,74.04
2018-06-09T04:20:27.547Z,74.19
2018-06-09T04:21:59.066Z,74.10
2018-06-09T04:23:22.474Z,74.58
2018-06-09T04:24:53.926Z,74.88
2018-06-09T04:26:21.466Z,74.48
2018-06-09T04:27:44.864Z,74.39
2018-06-09T04:29:16.230Z,74.72
2018-06-09T04:30:39.528Z,75.04
2018-06-09T04:32:07.035Z,75.40
2018-06-09T04:33:34.529Z,75.60
2018-06-09T04:35:01.860Z,75.45
2018-06-09T04:36:29.131Z,75.75
2018-06-09T04:37:56.798Z,75.75
2018-06-09T04:39:24.268Z,76.05
2018-06-09T04:40:55.769Z,76.30
2018-06-09T04:42:23.366Z,76.47
2018-06-09T04:43:46.808Z,76.54
2018-06-09T04:45:14.367Z,76.53
2018-06-09T04:46:45.786Z,76.10
2018-06-09T04:48:09.232Z,76.32
2018-06-09T04:49:36.723Z,76.44
2018-06-09T04:51:04.321Z,76.20
2018-06-09T04:52:31.778Z,76.45
2018-06-09T04:54:03.115Z,76.25
2018-06-09T04:55:30.448Z,76.60
2018-06-09T04:56:53.950Z,76.53
2018-06-09T04:58:25.494Z,76.29
2018-06-09T04:59:48.750Z,76.47
2018-06-09T05:01:20.295Z,76.66
2018-06-09T05:02:43.472Z,76.58
2018-06-09T05:04:10.856Z,76.56
2018-06-09T05:05:38.337Z,76.45
2018-06-09T05:07:05.806Z,76.06
2018-06-09T05:08:33.196Z,76.48
2018-06-09T05:10:00.779Z,76.55
2018-06-09T05:11:32.252Z,75.93
2018-06-09T05:12:55.781Z,76.13
2018-06-09T05:14:27.342Z,75.83
2018-06-09T05:15:50.851Z,75.55
2018-06-09T05:17:18.472Z,74.60
2018-06-09T05:18:45.678Z,74.94
2018-06-09T05:20:13.224Z,75.64
2018-06-09T05:21:40.462Z,75.71
2018-06-09T05:23:07.912Z,75.52
2018-06-09T05:24:35.397Z,75.32
2018-06-09T05:26:02.887Z,75.00
2018-06-09T05:27:30.459Z,74.37
2018-06-09T05:28:57.669Z,74.97
2018-06-09T05:30:25.112Z,74.69
2018-06-09T05:31:52.655Z,74.58
2018-06-09T05:33:20.152Z,73.96
2018-06-09T05:34:47.825Z,73.79
2018-06-09T05:36:19.530Z,73.74
2018-06-09T05:37:47.062Z,72.94
2018-06-09T05:39:10.727Z,71.84
2018-06-09T05:40:38.286Z,71.45
2018-06-09T05:42:05.972Z,70.54
2018-06-09T05:43:33.409Z,69.54
2018-06-09T05:45:04.966Z,69.86
2018-06-09T05:46:28.660Z,69.23
2018-06-09T05:48:00.060Z,68.56
2018-06-09T05:49:23.614Z,68.55
2018-06-09T05:50:51.166Z,67.56
2018-06-09T05:52:22.796Z,67.89
2018-06-09T05:53:46.484Z,67.89
2018-06-09T05:55:14.029Z,67.22
2018-06-09T05:56:41.541Z,67.65
2018-06-09T05:58:08.747Z,68.14
2018-06-09T05:59:36.223Z,67.18
2018-06-09T06:01:03.679Z,67.57
2018-06-09T06:02:31.250Z,67.58
2018-06-09T06:03:58.605Z,66.42
2018-06-09T06:05:26.177Z,66.64
2018-06-09T06:06:57.765Z,68.20
2018-06-09T06:08:21.101Z,68.37
2018-06-09T06:09:52.782Z,68.28
2018-06-09T06:11:20.279Z,67.21
2018-06-09T06:12:43.848Z,66.81
2018-06-09T06:14:15.360Z,67.68
2018-06-09T06:15:38.959Z,67.20
2018-06-09T06:17:06.441Z,66.70
2018-06-09T06:18:34.007Z,67.75
2018-06-09T06:20:01.356Z,66.71
2018-06-09T06:21:28.720Z,66.87
2018-06-09T06:22:56.330Z,67.73
2018-06-09T06:24:24.172Z,66.80
2018-06-09T06:25:51.934Z,65.89
2018-06-09T06:27:19.589Z,65.47
2018-06-09T06:28:51.006Z,65.42
2018-06-09T06:30:18.381Z,64.47
2018-06-09T06:31:46.109Z,64.72
2018-06-09T06:33:13.825Z,64.67
2018-06-09T06:34:41.568Z,63.77
2018-06-09T06:36:05.232Z,63.89
2018-06-09T06:37:36.934Z,61.92
2018-06-09T06:39:00.687Z,62.53
2018-06-09T06:40:28.365Z,60.77
2018-06-09T06:41:59.540Z,60.37
2018-06-09T06:43:23.279Z,60.04
2018-06-09T06:44:54.996Z,58.25
2018-06-09T06:46:18.698Z,58.17
2018-06-09T06:47:50.337Z,56.18
2018-06-09T06:49:14.146Z,55.41
2018-06-09T06:50:45.899Z,55.03
2018-06-09T06:52:13.563Z,53.15
2018-06-09T06:53:41.278Z,53.18
2018-06-09T06:55:08.691Z,55.79
2018-06-09T06:56:32.403Z,54.44
2018-06-09T06:58:04.152Z,53.95
2018-06-09T06:59:27.622Z,55.39
2018-06-09T07:00:55.312Z,55.10
2018-06-09T07:02:26.882Z,54.85
2018-06-09T07:03:54.426Z,55.33
2018-06-09T07:05:22.122Z,56.53
2018-06-09T07:06:49.784Z,55.95
2018-06-09T07:08:13.466Z,56.37
2018-06-09T07:09:41.042Z,55.99
2018-06-09T07:11:12.773Z,55.68
2018-06-09T07:12:40.232Z,55.31
2018-06-09T07:14:07.936Z,55.69
2018-06-09T07:15:31.622Z,55.13
2018-06-09T07:16:59.040Z,54.22
2018-06-09T07:18:26.750Z,53.54
2018-06-09T07:19:54.492Z,53.79
2018-06-09T07:21:22.011Z,53.96
2018-06-09T07:22:49.674Z,53.96
2018-06-09T07:24:21.425Z,53.14
2018-06-09T07:25:45.183Z,53.45
2018-06-09T07:27:16.727Z,53.11
2018-06-09T07:28:40.429Z,54.38
2018-06-09T07:30:08.063Z,53.28
2018-06-09T07:31:35.648Z,54.00
2018-06-09T07:33:03.246Z,54.19
2018-06-09T07:34:30.976Z,54.10
2018-06-09T07:35:58.522Z,54.73
2018-06-09T07:37:26.237Z,54.15
2018-06-09T07:38:57.935Z,53.50
2018-06-09T07:40:25.565Z,53.92
2018-06-09T07:41:49.192Z,52.82
2018-06-09T07:43:17.015Z,53.84
2018-06-09T07:44:44.662Z,53.31
2018-06-09T07:46:12.249Z,53.62
2018-06-09T07:47:43.780Z,52.29
2018-06-09T07:49:07.543Z,53.27
2018-06-09T07:50:35.178Z,53.02
2018-06-09T07:52:02.800Z,52.87
2018-06-09T07:53:34.603Z,52.07
2018-06-09T07:54:58.223Z,52.51
2018-06-09T07:56:25.971Z,52.68
2018-06-09T07:57:57.630Z,52.30
2018-06-09T07:59:25.021Z,52.18
2018-06-09T08:00:48.744Z,53.15
2018-06-09T08:02:20.395Z,52.51
2018-06-09T08:03:43.701Z,53.02
2018-06-09T08:05:11.294Z,51.91
2018-06-09T08:06:38.897Z,51.72
2018-06-09T08:08:06.572Z,51.65
2018-06-09T08:09:34.261Z,51.77
2018-06-09T08:11:01.853Z,52.15
2018-06-09T08:12:33.309Z,52.98
2018-06-09T08:13:56.718Z,52.26
2018-06-09T08:15:24.205Z,51.84
2018-06-09T08:16:51.944Z,52.47
2018-06-09T08:18:19.475Z,52.52
2018-06-09T08:19:47.193Z,52.17
2018-06-09T08:21:14.822Z,51.34
2018-06-09T08:22:42.679Z,51.11
2018-06-09T08:24:10.402Z,51.70
2018-06-09T08:25:42.137Z,51.09
2018-06-09T08:27:05.830Z,51.03
2018-06-09T08:28:33.491Z,49.83
2018-06-09T08:30:01.095Z,50.34
2018-06-09T08:31:28.850Z,49.81
2018-06-09T08:32:56.556Z,49.76
2018-06-09T08:34:24.238Z,50.57
2018-06-09T08:35:52.084Z,51.17
2018-06-09T08:37:19.678Z,50.80
2018-06-09T08:38:47.538Z,49.77
2018-06-09T08:40:15.335Z,47.00
2018-06-09T08:41:43.079Z,46.61
2018-06-09T08:43:10.264Z,47.44
2018-06-09T08:44:42.103Z,48.46
2018-06-09T08:46:09.656Z,48.09
2018-06-09T08:47:37.330Z,49.01
2018-06-09T08:49:04.953Z,48.24
2018-06-09T08:50:28.633Z,48.27
2018-06-09T08:51:56.289Z,47.01
2018-06-09T08:53:23.954Z,46.34
2018-06-09T08:54:51.638Z,45.81
2018-06-09T08:56:19.469Z,45.56
2018-06-09T08:57:46.941Z,44.91
2018-06-09T08:59:18.557Z,44.86
2018-06-09T09:00:46.233Z,44.82
2018-06-09T09:02:09.685Z,45.05
2018-06-09T09:03:37.268Z,44.58
2018-06-09T09:05:04.712Z,45.41
2018-06-09T09:06:36.227Z,45.69
2018-06-09T09:07:59.689Z,44.10
2018-06-09T09:09:27.246Z,44.45
2018-06-09T09:10:54.925Z,41.41
2018-06-09T09:12:22.630Z,43.22
2018-06-09T09:13:54.267Z,42.66
2018-06-09T09:15:22.014Z,43.94
2018-06-09T09:16:49.752Z,43.89
2018-06-09T09:18:13.272Z,44.30
2018-06-09T09:19:40.964Z,43.36
2018-06-09T09:21:08.716Z,41.71
2018-06-09T09:22:36.395Z,41.83
2018-06-09T09:24:07.863Z,39.88
2018-06-09T09:25:31.108Z,39.17
2018-06-09T09:26:58.898Z,38.22
2018-06-09T09:28:26.506Z,40.90
2018-06-09T09:29:54.117Z,41.46
2018-06-09T09:31:21.711Z,41.88
2018-06-09T09:32:49.425Z,39.74
2018-06-09T09:34:17.121Z,41.88
2018-06-09T09:35:44.806Z,42.34
2018-06-09T09:37:12.543Z,42.55
2018-06-09T09:38:40.268Z,41.54
2018-06-09T09:40:11.950Z,41.55
2018-06-09T09:41:35.685Z,40.05
2018-06-09T09:43:03.358Z,40.46
2018-06-09T09:44:31.059Z,41.40
2018-06-09T09:45:58.718Z,41.11
2018-06-09T09:47:26.450Z,40.29
2018-06-09T09:48:54.159Z,40.71
2018-06-09T09:50:21.958Z,41.31
2018-06-09T09:51:49.750Z,40.83
2018-06-09T09:53:21.429Z,40.69
2018-06-09T09:54:49.000Z,39.20
2018-06-09T09:56:12.680Z,39.88
2018-06-09T09:57:44.431Z,40.78
2018-06-09T09:59:07.926Z,40.78
2018-06-09T10:00:35.458Z,39.95
2018-06-09T10:02:03.257Z,40.61
2018-06-09T10:03:30.946Z,39.59
2018-06-09T10:04:58.510Z,39.79
2018-06-09T10:06:26.310Z,38.49
2018-06-09T10:07:53.931Z,40.19
2018-06-09T10:09:21.746Z,38.49
2018-06-09T10:10:49.458Z,38.22
2018-06-09T10:12:17.217Z,38.12
2018-06-09T10:13:48.867Z,35.03
2018-06-09T10:15:12.516Z,36.43
2018-06-09T10:16:40.090Z,36.98
2018-06-09T10:18:07.729Z,38.69
2018-06-09T10:19:35.526Z,37.77
2018-06-09T10:21:03.295Z,38.39
2018-06-09T10:22:34.977Z,37.11
2018-06-09T10:24:02.546Z,37.37
2018-06-09T10:25:26.161Z,36.66
2018-06-09T10:26:53.962Z,37.00
2018-06-09T10:28:25.536Z,36.99
2018-06-09T10:29:49.263Z,36.48
2018-06-09T10:31:16.944Z,37.27
2018-06-09T10:32:44.655Z,36.20
2018-06-09T10:34:12.359Z,37.39
2018-06-09T10:35:40.027Z,37.68
2018-06-09T10:37:11.860Z,37.45
2018-06-09T10:38:35.590Z,37.09
2018-06-09T10:40:03.131Z,36.49
2018-06-09T10:41:30.879Z,36.22
2018-06-09T10:43:02.525Z,35.80
2018-06-09T10:44:26.227Z,35.40
2018-06-09T10:45:53.893Z,34.34
2018-06-09T10:47:21.689Z,35.73
2018-06-09T10:48:49.450Z,35.46
2018-06-09T10:50:21.105Z,36.44
2018-06-09T10:51:44.803Z,36.15
2018-06-09T10:53:12.598Z,35.03
2018-06-09T10:54:40.337Z,33.02
2018-06-09T10:56:12.059Z,33.24
2018-06-09T10:57:35.695Z,33.21
2018-06-09T10:59:03.096Z,34.71
2018-06-09T11:00:30.797Z,35.27
2018-06-09T11:01:58.500Z,34.81
2018-06-09T11:03:26.133Z,35.16
2018-06-09T11:04:53.871Z,34.31
2018-06-09T11:06:21.476Z,34.46
2018-06-09T11:07:49.102Z,34.14
2018-06-09T11:09:16.807Z,33.17
2018-06-09T11:10:44.337Z,33.88
2018-06-09T11:12:12.095Z,33.05
2018-06-09T11:13:39.767Z,35.20
2018-06-09T11:15:07.403Z,34.76
2018-06-09T11:16:35.100Z,33.82
2018-06-09T11:18:06.719Z,34.05
2018-06-09T11:19:30.464Z,33.11
2018-06-09T11:20:57.923Z,33.90
2018-06-09T11:22:25.649Z,32.56
2018-06-09T11:23:57.451Z,32.61
2018-06-09T11:25:25.230Z,32.23
2018-06-09T11:26:48.998Z,31.51
2018-06-09T11:28:16.522Z,32.25
2018-06-09T11:29:44.364Z,31.66
2018-06-09T11:31:12.108Z,31.43
2018-06-09T11:32:39.673Z,30.50
2018-06-09T11:34:07.562Z,30.74
2018-06-09T11:35:39.306Z,31.00
2018-06-09T11:37:03.097Z,30.81
2018-06-09T11:38:30.719Z,31.12
2018-06-09T11:39:58.480Z,32.85
2018-06-09T11:41:26.215Z,32.38
2018-06-09T11:42:57.921Z,32.34
2018-06-09T11:44:25.645Z,32.05
2018-06-09T11:45:53.463Z,32.85
2018-06-09T11:47:17.078Z,31.99
2018-06-09T11:48:44.886Z,31.52
2018-06-09T11:50:12.536Z,32.15
2018-06-09T11:51:44.322Z,33.04
2018-06-09T11:53:12.090Z,33.37
2018-06-09T11:54:39.697Z,32.64
2018-06-09T11:56:07.508Z,32.27
2018-06-09T11:57:31.186Z,33.33
2018-06-09T11:58:58.807Z,33.03
2018-06-09T12:00:26.610Z,32.09
2018-06-09T12:01:54.274Z,32.63
2018-06-09T12:03:25.981Z,32.92
2018-06-09T12:04:53.704Z,32.94
2018-06-09T12:06:21.597Z,32.59
2018-06-09T12:07:45.352Z,31.98
2018-06-09T12:09:16.613Z,32.64
2018-06-09T12:10:40.387Z,32.08
2018-06-09T12:12:08.174Z,31.80
2018-06-09T12:13:35.842Z,33.15
2018-06-09T12:15:07.602Z,32.67
2018-06-09T12:16:35.217Z,32.47
2018-06-09T12:17:59.003Z,32.47
2018-06-09T12:19:30.674Z,32.22
2018-06-09T12:20:54.197Z,32.49
2018-06-09T12:22:21.895Z,32.36
2018-06-09T12:23:53.650Z,32.25
2018-06-09T12:25:17.458Z,32.21
2018-06-09T12:26:45.401Z,31.55
2018-06-09T12:28:17.098Z,33.31
2018-06-09T12:29:40.712Z,32.98
2018-06-09T12:31:08.411Z,32.55
2018-06-09T12:32:36.404Z,32.31
2018-06-09T12:34:04.095Z,31.96
2018-06-09T12:35:31.764Z,32.91
2018-06-09T12:36:59.307Z,32.17
2018-06-09T12:38:26.952Z,32.14
2018-06-09T12:39:54.674Z,32.14
2018-06-09T12:41:22.407Z,31.82
2018-06-09T12:42:54.027Z,32.38
2018-06-09T12:44:17.888Z,32.90
2018-06-09T12:45:45.396Z,31.83
2018-06-09T12:47:17.160Z,32.03
2018-06-09T12:48:40.895Z,32.60
2018-06-09T12:50:08.690Z,33.66
2018-06-09T12:51:40.417Z,32.08
2018-06-09T12:53:04.193Z,31.89
2018-06-09T12:54:32.071Z,32.14
2018-06-09T12:55:59.797Z,32.27
2018-06-09T12:57:27.482Z,32.80
2018-06-09T12:58:59.314Z,33.03
2018-06-09T13:00:26.829Z,32.88
2018-06-09T13:01:50.384Z,32.73
2018-06-09T13:03:21.933Z,32.78
2018-06-09T13:04:45.740Z,33.11
2018-06-09T13:06:13.435Z,32.56
2018-06-09T13:07:41.128Z,33.80
2018-06-09T13:09:08.582Z,33.37
2018-06-09T13:10:36.415Z,33.60
2018-06-09T13:12:04.125Z,33.55
2018-06-09T13:13:31.892Z,33.56
2018-06-09T13:14:59.501Z,33.45
2018-06-09T13:16:26.811Z,32.98
2018-06-09T13:17:58.548Z,32.95
2018-06-09T13:19:22.382Z,33.23
2018-06-09T13:20:49.838Z,33.15
2018-06-09T13:22:21.625Z,33.46
2018-06-09T13:23:49.047Z,33.26
2018-06-09T13:25:16.804Z,33.60
2018-06-09T13:26:40.496Z,34.60
2018-06-09T13:28:08.267Z,34.26
2018-06-09T13:29:35.946Z,34.13
2018-06-09T13:31:03.707Z,34.58
2018-06-09T13:32:31.548Z,34.49
2018-06-09T13:34:03.057Z,35.24
2018-06-09T13:35:26.471Z,35.44
2018-06-09T13:36:58.208Z,35.71
2018-06-09T13:38:22.043Z,36.49
2018-06-09T13:39:49.835Z,35.92
2018-06-09T13:41:21.293Z,35.63
2018-06-09T13:42:48.814Z,35.63
2018-06-09T13:44:12.618Z,35.73
2018-06-09T13:45:44.199Z,36.42
2018-06-09T13:47:07.931Z,37.18
2018-06-09T13:48:35.665Z,37.03
2018-06-09T13:50:03.384Z,36.14
2018-06-09T13:51:31.134Z,36.66
2018-06-09T13:52:58.809Z,36.82
2018-06-09T13:54:26.417Z,36.40
2018-06-09T13:55:54.224Z,36.50
2018-06-09T13:57:22.017Z,36.43
2018-06-09T13:58:49.662Z,36.48
2018-06-09T14:00:20.769Z,37.39
2018-06-09T14:01:44.484Z,37.25
2018-06-09T14:03:12.286Z,36.40
2018-06-09T14:04:39.709Z,37.53
2018-06-09T14:06:07.378Z,37.26
2018-06-09T14:07:35.134Z,36.74
2018-06-09T14:09:02.841Z,37.28
2018-06-09T14:10:30.632Z,37.24
2018-06-09T14:11:58.191Z,37.42
2018-06-09T14:13:25.993Z,37.29
2018-06-09T14:14:53.796Z,36.99
2018-06-09T14:16:21.424Z,36.88
2018-06-09T14:17:49.101Z,37.97
2018-06-09T14:19:16.758Z,36.96
2018-06-09T14:20:44.524Z,37.23
2018-06-09T14:22:12.098Z,36.20
2018-06-09T14:23:43.868Z,36.57
2018-06-09T14:25:11.630Z,36.46
2018-06-09T14:26:35.349Z,36.61
2018-06-09T14:28:03.120Z,36.11
2018-06-09T14:29:30.567Z,36.45
2018-06-09T14:30:58.414Z,36.27
2018-06-09T14:32:26.058Z,36.28
2018-06-09T14:33:57.680Z,36.88
2018-06-09T14:35:21.470Z,36.41
2018-06-09T14:36:49.268Z,36.54
2018-06-09T14:38:16.859Z,36.79
2018-06-09T14:39:48.277Z,36.71
2018-06-09T14:41:12.005Z,36.64
2018-06-09T14:42:39.690Z,36.77
2018-06-09T14:44:11.514Z,36.29
2018-06-09T14:45:35.192Z,36.31
2018-06-09T14:47:02.991Z,36.88
2018-06-09T14:48:30.608Z,36.84
2018-06-09T14:50:02.279Z,36.77
2018-06-09T14:51:26.047Z,36.69
2018-06-09T14:52:53.718Z,36.67
2018-06-09T14:54:21.574Z,36.74
2018-06-09T14:55:49.314Z,36.33
2018-06-09T14:57:20.930Z,36.91
2018-06-09T14:58:44.586Z,37.37
2018-06-09T15:00:16.341Z,37.45
2018-06-09T15:01:40.103Z,37.46
2018-06-09T15:03:11.601Z,37.51
2018-06-09T15:04:39.277Z,38.03
2018-06-09T15:06:07.011Z,38.05
2018-06-09T15:07:34.717Z,38.28
2018-06-09T15:09:02.370Z,37.63
2018-06-09T15:10:30.038Z,38.32
2018-06-09T15:11:53.880Z,37.70
2018-06-09T15:13:21.626Z,37.46
2018-06-09T15:14:49.342Z,37.82
2018-06-09T15:16:17.060Z,37.70
2018-06-09T15:17:48.820Z,37.77
2018-06-09T15:19:12.529Z,37.64
2018-06-09T15:20:44.146Z,37.27
2018-06-09T15:22:07.924Z,37.99
2018-06-09T15:23:39.625Z,38.31
2018-06-09T15:25:07.311Z,38.32
2018-06-09T15:26:30.987Z,37.82
2018-06-09T15:27:58.709Z,37.74
2018-06-09T15:29:30.355Z,37.48
2018-06-09T15:30:58.982Z,37.51
2018-06-09T15:32:21.564Z,37.68
2018-06-09T15:33:49.399Z,37.88
2018-06-09T15:35:21.084Z,38.01
2018-06-09T15:36:48.758Z,37.44
2018-06-09T15:38:16.500Z,37.87
2018-06-09T15:39:40.277Z,37.72
2018-06-09T15:41:07.995Z,37.39
2018-06-09T15:42:35.711Z,37.89
2018-06-09T15:44:07.435Z,37.71
2018-06-09T15:45:31.011Z,37.53
2018-06-09T15:46:58.833Z,38.38
2018-06-09T15:48:26.568Z,37.26
2018-06-09T15:49:54.244Z,37.20
2018-06-09T15:51:26.054Z,37.30
2018-06-09T15:52:49.699Z,37.38
2018-06-09T15:54:21.437Z,38.42
2018-06-09T15:55:45.136Z,38.02
2018-06-09T15:57:16.954Z,38.31
2018-06-09T15:58:40.549Z,37.70
2018-06-09T16:00:12.300Z,37.46
2018-06-09T16:01:36.003Z,37.84
2018-06-09T16:03:07.597Z,37.41
2018-06-09T16:04:35.316Z,37.29
2018-06-09T16:06:02.964Z,37.44
2018-06-09T16:07:26.610Z,37.55
2018-06-09T16:08:54.326Z,37.90
2018-06-09T16:10:22.107Z,37.77
2018-06-09T16:11:49.569Z,37.63
2018-06-09T16:13:17.307Z,37.29
2018-06-09T16:14:44.951Z,37.29
2018-06-09T16:16:12.791Z,37.21
2018-06-09T16:17:40.558Z,36.87
2018-06-09T16:19:08.308Z,37.30
2018-06-09T16:20:36.029Z,37.51
2018-06-09T16:22:03.776Z,37.60
2018-06-09T16:23:35.550Z,37.53
2018-06-09T16:25:03.070Z,38.09
2018-06-09T16:26:26.821Z,37.94
2018-06-09T16:27:58.423Z,37.96
2018-06-09T16:29:22.230Z,38.29
2018-06-09T16:30:49.749Z,38.09
2018-06-09T16:32:17.445Z,37.78
2018-06-09T16:33:45.050Z,38.50
2018-06-09T16:35:16.776Z,38.25
2018-06-09T16:36:40.439Z,38.12
2018-06-09T16:38:08.090Z,38.13
2018-06-09T16:39:39.832Z,37.58
2018-06-09T16:41:07.485Z,38.67
2018-06-09T16:42:31.259Z,37.92
2018-06-09T16:43:58.705Z,43.85
2018-06-09T16:45:26.536Z,90.88
2018-06-09T16:46:54.214Z,88.96
2018-06-09T16:48:25.778Z,94.00
2018-06-09T16:49:49.289Z,93.20
2018-06-09T16:51:16.926Z,79.09
2018-06-09T16:52:44.654Z,93.35
2018-06-09T16:54:12.105Z,97.16
2018-06-09T16:55:43.829Z,88.44
2018-06-09T16:57:07.448Z,93.72
2018-06-09T16:58:35.119Z,94.20
2018-06-09T17:00:06.722Z,93.56
2018-06-09T17:01:30.236Z,97.55
2018-06-09T17:03:01.703Z,95.06
2018-06-09T17:04:29.277Z,90.37
2018-06-09T17:05:52.724Z,74.37
2018-06-09T17:07:24.419Z,62.12
2018-06-09T17:08:48.034Z,60.27
2018-06-09T17:10:15.538Z,59.35
2018-06-09T17:11:43.213Z,57.99
2018-06-09T17:13:10.910Z,58.78
2018-06-09T17:14:38.393Z,58.28
2018-06-09T17:16:05.952Z,56.59
2018-06-09T17:17:33.667Z,54.58
2018-06-09T17:19:01.139Z,55.97
2018-06-09T17:20:32.893Z,53.75
2018-06-09T17:22:00.561Z,53.39
2018-06-09T17:23:24.148Z,52.12
2018-06-09T17:24:55.755Z,51.83
2018-06-09T17:26:19.437Z,51.33
2018-06-09T17:27:47.108Z,50.78
2018-06-09T17:29:14.792Z,50.65
2018-06-09T17:30:46.311Z,49.84
2018-06-09T17:32:13.994Z,49.95
2018-06-09T17:33:37.682Z,49.57
2018-06-09T17:35:05.328Z,50.11
2018-06-09T17:36:33.008Z,49.73
2018-06-09T17:38:00.662Z,49.37
2018-06-09T17:39:28.264Z,50.00
2018-06-09T17:40:56.067Z,50.06
2018-06-09T17:42:23.740Z,49.92
2018-06-09T17:43:51.436Z,49.69
2018-06-09T17:45:23.055Z,50.02
2018-06-09T17:46:46.637Z,50.16
2018-06-09T17:48:14.282Z,49.74
2018-06-09T17:49:42.017Z,51.65
2018-06-09T17:51:09.667Z,50.88
2018-06-09T17:52:41.168Z,49.93
2018-06-09T17:54:04.716Z,49.51
2018-06-09T17:55:36.408Z,49.29
2018-06-09T17:57:00.097Z,49.53
2018-06-09T17:58:27.611Z,49.22
2018-06-09T17:59:55.311Z,48.14
2018-06-09T18:01:23.038Z,49.04
2018-06-09T18:02:54.817Z,48.91
2018-06-09T18:04:18.334Z,48.17
2018-06-09T18:05:45.907Z,47.09
2018-06-09T18:07:13.276Z,46.89
2018-06-09T18:08:44.883Z,46.99
2018-06-09T18:10:12.569Z,46.99
2018-06-09T18:11:36.072Z,46.67
2018-06-09T18:13:07.926Z,46.76
2018-06-09T18:14:31.591Z,46.84
2018-06-09T18:15:59.200Z,46.71
2018-06-09T18:17:26.897Z,46.94
2018-06-09T18:18:54.656Z,46.88
2018-06-09T18:20:22.414Z,47.02
2018-06-09T18:21:53.870Z,46.98
2018-06-09T18:23:21.305Z,46.87
2018-06-09T18:24:45.130Z,47.07
2018-06-09T18:26:12.702Z,47.67
2018-06-09T18:27:40.476Z,48.24
2018-06-09T18:29:12.185Z,48.22
2018-06-09T18:30:39.765Z,48.51
2018-06-09T18:32:03.453Z,48.52
2018-06-09T18:33:31.030Z,48.62
2018-06-09T18:34:58.677Z,49.07
2018-06-09T18:36:26.399Z,49.17
2018-06-09T18:37:57.987Z,49.79
2018-06-09T18:39:21.674Z,49.71
2018-06-09T18:40:49.176Z,49.92
2018-06-09T18:42:16.718Z,50.11
2018-06-09T18:43:44.459Z,50.50
2018-06-09T18:45:15.996Z,50.66
2018-06-09T18:46:39.598Z,50.43
2018-06-09T18:48:11.354Z,50.83